Hideaway Lake (907, 908, 1021, 1022) Station Data

Red Flag Warning: No
Fire Weather Zone: 250
SDGE Region: North East
Lat/Lon: 33.24/-117.045

Observations

Time Wind Speed/Gust Temp(F) RH Fuel Moist Fuel Temp(F) Dewpt(F) Tmax(F) Tmin(F) Accum Precip 10-min Precip SL Press(mb)
4/30 12:00am 105 2 G 3 61° 25% - - 25° 80.8° 53.7° - - -
4/29 11:50pm 83 3 G 4 60° 26% - - 25° 80.8° 53.7° - - -
4/29 11:40pm 87 3 G 4 61° 26% - - 25° 80.8° 53.7° - - -
4/29 11:30pm 122 2 G 3 61° 25% - - 25° 80.8° 53.7° - - -
4/29 11:20pm 144 2 G 4 61° 24% - - 24° 80.8° 53.7° - - -
4/29 11:10pm 140 2 G 4 62° 24% - - 24° 80.8° 53.7° - - -
4/29 11:00pm 133 2 G 3 62° 23% - - 24° 80.8° 53.7° - - -
4/29 10:50pm 120 2 G 3 62° 24% - - 24° 80.8° 53.7° - - -
4/29 10:40pm 135 3 G 4 62° 23% - - 24° 80.8° 53.7° - - -
4/29 10:30pm 143 3 G 3 62° 22% - - 23° 80.8° 53.7° - - -
4/29 10:20pm 143 2 G 4 62° 23% - - 24° 80.8° 53.7° - - -
4/29 10:10pm 137 3 G 5 62° 22% - - 23° 80.8° 53.7° - - -
4/29 10:00pm 128 2 G 4 62° 24% - - 24° 80.8° 53.7° - - -
4/29 9:50pm 152 2 G 5 61° 26% - - 26° 80.8° 53.7° - - -
4/29 9:40pm 130 2 G 5 62° 26% - - 27° 80.8° 53.7° - - -
4/29 9:30pm 165 4 G 7 62° 26% - - 27° 80.8° 53.7° - - -
4/29 9:20pm 165 4 G 9 62° 26% - - 27° 80.8° 53.7° - - -
4/29 9:10pm 166 4 G 6 62° 26% - - 27° 80.8° 53.7° - - -
4/29 9:00pm 160 5 G 7 63° 25% - - 26° 80.8° 53.7° - - -
4/29 8:50pm 134 2 G 4 63° 22% - - 23° 80.8° 53.7° - - -
4/29 8:40pm 131 2 G 5 64° 21% - - 23° 80.8° 53.7° - - -
4/29 8:30pm 133 2 G 3 65° 20% - - 23° 80.8° 53.7° - - -
4/29 8:20pm 132 2 G 4 65° 19% - - 23° 80.8° 53.7° - - -
4/29 8:10pm 145 2 G 4 66° 19% - - 23° 80.8° 53.7° - - -
4/29 8:00pm 172 1 G 2 66° 19% - - 22° 80.8° 53.7° - - -
4/29 7:50pm 212 1 G 2 67° 18% - - 22° 80.8° 53.7° - - -
4/29 7:40pm 171 1 G 2 67° 17% - - 21° 80.8° 53.7° - - -
4/29 7:30pm 249 0 G 2 68° 16% - - 21° 80.8° 53.7° - - -
4/29 7:20pm 243 3 G 6 68° 16% - - 20° 80.8° 53.7° - - -
4/29 7:10pm 235 4 G 8 69° 16% - - 21° 80.8° 53.7° - - -
4/29 7:00pm 241 5 G 8 70° 15% - - 20° 80.8° 53.7° - - -
4/29 6:50pm 250 5 G 8 71° 14% - - 20° 80.8° 53.7° - - -
4/29 6:40pm 253 4 G 8 71° 15% - - 21° 80.8° 53.7° - - -
4/29 6:30pm 270 6 G 10 71° 14% - - 20° 80.8° 53.7° - - -
4/29 6:20pm 274 5 G 9 72° 14% - - 20° 80.8° 53.7° - - -
4/29 6:10pm 269 5 G 12 72° 14% - - 21° 80.8° 53.7° - - -
4/29 6:00pm 276 6 G 11 72° 14% - - 21° 80.8° 53.7° - - -
4/29 5:50pm 291 6 G 12 73° 15% - - 22° 80.8° 53.7° - - -
4/29 5:40pm 287 6 G 10 74° 14% - - 22° 80.8° 53.7° - - -
4/29 5:30pm 272 6 G 11 74° 13% - - 20° 80.8° 53.7° - - -
4/29 5:20pm 259 5 G 12 75° 13% - - 20° 80.8° 53.7° - - -
4/29 5:10pm 265 7 G 12 74° 13% - - 20° 80.8° 53.7° - - -
4/29 5:00pm 274 7 G 13 75° 13% - - 21° 80.8° 53.7° - - -
4/29 4:50pm 236 6 G 13 76° 13% - - 22° 80.8° 53.7° - - -
4/29 4:40pm 231 7 G 12 76° 13% - - 21° 80.8° 53.7° - - -
4/29 4:30pm 251 7 G 14 76° 13% - - 21° 80.8° 53.7° - - -
4/29 4:20pm 251 7 G 14 77° 12% - - 21° 80.8° 53.7° - - -
4/29 4:10pm 273 6 G 12 78° 11% - - 20° 80.8° 53.7° - - -
4/29 4:00pm 260 7 G 14 77° 11% - - 19° 80.8° 53.7° - - -
4/29 3:50pm 243 8 G 15 77° 11% - - 18° 80.8° 53.7° - - -
4/29 3:40pm 253 8 G 15 77° 11% - - 19° 80.8° 53.7° - - -
4/29 3:30pm 248 9 G 18 78° 11% - - 19° 80.8° 53.7° - - -
4/29 3:20pm 240 9 G 14 78° 11% - - 18° 80.8° 53.7° - - -
4/29 3:10pm 220 7 G 13 78° 10% - - 18° 80.8° 53.7° - - -
4/29 3:00pm 264 8 G 15 77° 11% - - 18° 80.8° 53.7° - - -
4/29 2:50pm 239 9 G 15 77° 11% - - 19° 80.8° 53.7° - - -
4/29 2:40pm 232 10 G 20 77° 12% - - 20° 80.8° 53.7° - - -
4/29 2:30pm 232 8 G 20 78° 12% - - 21° 80.8° 53.7° - - -
4/29 2:20pm 246 6 G 15 79° 10% - - 18° 80.8° 53.7° - - -
4/29 2:10pm 218 4 G 9 80° 8% - - 14° 80.8° 53.7° - - -
4/29 2:00pm 100 3 G 8 79° 8% - - 13° 80.6° 53.7° - - -
4/29 1:50pm 209 6 G 12 79° 8% - - 13° 80.2° 53.7° - - -
4/29 1:40pm 209 5 G 10 79° 8% - - 13° 80.2° 53.7° - - -
4/29 1:30pm 178 5 G 10 80° 8% - - 14° 80.2° 53.7° - - -
4/29 1:20pm 191 5 G 12 79° 8% - - 14° 79.8° 53.7° - - -
4/29 1:10pm 183 5 G 10 79° 8% - - 13° 79.8° 53.7° - - -
4/29 1:00pm 157 4 G 10 79° 8% - - 13° 79.8° 53.7° - - -
4/29 12:50pm 12 3 G 7 79° 8% - - 14° 79.8° 53.7° - - -
4/29 12:40pm 119 4 G 16 78° 8% - - 13° 79.4° 53.7° - - -
4/29 12:30pm 151 5 G 10 77° 9% - - 13° 78.5° 53.7° - - -
4/29 12:20pm 186 5 G 12 77° 8% - - 13° 78.5° 53.7° - - -
4/29 12:10pm 216 3 G 8 78° 9% - - 13° 78.5° 53.7° - - -
4/29 12:00pm 339 3 G 7 77° 9% - - 13° 78.5° 53.7° - - -
4/29 11:50am 260 3 G 8 77° 9% - - 14° 77.5° 53.7° - - -
4/29 11:40am 228 4 G 8 76° 9% - - 14° 77.4° 53.7° - - -
4/29 11:30am 251 4 G 8 76° 9% - - 14° 76.4° 53.7° - - -
4/29 11:20am 202 2 G 5 75° 9% - - 12° 75.7° 53.7° - - -
4/29 11:10am 316 4 G 11 74° 9% - - 13° 75.6° 53.7° - - -
4/29 11:00am 280 5 G 11 74° 10% - - 13° 75.6° 53.7° - - -
4/29 10:50am 57 2 G 6 75° 8% - - 11° 75.6° 53.7° - - -
4/29 10:40am 50 3 G 8 73° 9% - - 11° 73.9° 53.7° - - -
4/29 10:30am 190 3 G 7 73° 10% - - 13° 73.8° 53.7° - - -
4/29 10:20am 212 3 G 7 73° 10% - - 13° 73.7° 53.7° - - -
4/29 10:10am 149 3 G 8 73° 10% - - 13° 73.7° 53.7° - - -
4/29 10:00am 62 2 G 6 72° 10% - - 12° 72.6° 53.7° - - -
4/29 9:50am 137 4 G 8 72° 10% - - 13° 72.6° 53.7° - - -
4/29 9:40am 81 3 G 7 71° 10% - - 12° 72.4° 53.7° - - -
4/29 9:30am 328 4 G 8 70° 12% - - 14° 71.2° 53.7° - - -
4/29 9:20am 307 4 G 8 69° 12% - - 15° 69.8° 53.7° - - -
4/29 9:10am 294 4 G 6 68° 13% - - 15° 68.7° 53.7° - - -
4/29 9:00am 290 4 G 7 67° 14% - - 16° 67.9° 53.7° - - -
4/29 8:50am 294 3 G 6 66° 14% - - 16° 66.9° 53.7° - - -
4/29 8:40am 289 3 G 6 65° 14% - - 16° 65.9° 53.7° - - -
4/29 8:30am 300 2 G 3 65° 15% - - 16° 65.7° 53.7° - - -
4/29 8:20am 343 1 G 4 64° 19% - - 20° 64.9° 53.7° - - -
4/29 8:10am 195 2 G 4 63° 23% - - 24° 64.9° 53.7° - - -
4/29 8:00am 137 1 G 3 62° 27% - - 28° 64.9° 53.7° - - -
4/29 7:50am 164 1 G 3 61° 23% - - 23° 64.9° 53.7° - - -
4/29 7:40am 145 1 G 4 59° 27% - - 25° 64.9° 53.7° - - -
4/29 7:30am 208 1 G 3 58° 28% - - 25° 64.9° 53.7° - - -
4/29 7:20am 99 2 G 4 57° 25% - - 21° 64.9° 53.7° - - -
4/29 7:10am 296 2 G 4 57° 23% - - 19° 64.9° 53.7° - - -
4/29 7:00am 113 1 G 3 57° 23% - - 20° 64.9° 53.7° - - -
4/29 6:50am 74 1 G 3 56° 22% - - 18° 64.9° 53.7° - - -
4/29 6:40am 210 1 G 3 56° 22% - - 18° 64.9° 53.7° - - -
4/29 6:30am 231 1 G 3 55° 22% - - 17° 64.9° 53.7° - - -
4/29 6:20am 190 1 G 3 54° 24% - - 18° 64.9° 53.7° - - -
4/29 6:10am 213 2 G 5 57° 20% - - 16° 64.9° 53.7° - - -
4/29 6:00am 309 4 G 7 59° 16% - - 12° 64.9° 53.7° - - -
4/29 5:50am 304 5 G 7 60° 15% - - 11° 64.9° 53.7° - - -
4/29 5:40am 289 4 G 6 59° 16% - - 13° 64.9° 53.7° - - -
4/29 5:30am 261 3 G 6 57° 21% - - 17° 64.9° 53.7° - - -
4/29 5:20am 254 3 G 6 56° 24% - - 20° 64.9° 53.7° - - -
4/29 5:10am 228 1 G 3 57° 23% - - 20° 64.9° 53.7° - - -
4/29 5:00am 26 2 G 4 61° 19% - - 17° 64.9° 53.7° - - -
4/29 4:50am 3 2 G 4 61° 15% - - 13° 64.9° 53.7° - - -
4/29 4:40am 294 2 G 4 60° 18% - - 16° 64.9° 53.7° - - -
4/29 4:30am 302 3 G 6 59° 21% - - 19° 64.9° 53.7° - - -
4/29 4:20am 187 2 G 4 60° 21% - - 20° 64.9° 53.7° - - -
4/29 4:10am 305 2 G 5 62° 17% - - 16° 64.9° 53.7° - - -
4/29 4:00am 312 4 G 7 63° 15% - - 14° 64.9° 53.7° - - -
4/29 3:50am 310 3 G 6 63° 15% - - 14° 64.9° 53.7° - - -
4/29 3:40am 359 3 G 6 64° 14% - - 14° 64.9° 53.7° - - -
4/29 3:30am 336 4 G 5 64° 15% - - 15° 64.7° 53.7° - - -
4/29 3:20am 340 2 G 4 64° 15% - - 15° 64.4° 53.7° - - -
4/29 3:10am 342 3 G 6 63° 18% - - 19° 64.4° 53.7° - - -
4/29 3:00am 334 4 G 7 63° 17% - - 18° 64.3° 53.7° - - -
4/29 2:50am 323 3 G 5 63° 17% - - 18° 63.5° 53.7° - - -
4/29 2:40am 303 1 G 4 62° 22% - - 22° 62.6° 53.7° - - -
4/29 2:30am 41 2 G 7 60° 25% - - 24° 62.6° 53.7° - - -
4/29 2:20am 270 1 G 3 57° 40% - - 33° 61.3° 53.7° - - -
4/29 2:10am 180 1 G 2 56° 46% - - 35° 61.3° 53.7° - - -
4/29 2:00am 199 1 G 2 56° 50% - - 37° 61.3° 53.7° - - -
4/29 1:50am 298 1 G 2 55° 53% - - 38° 61.3° 53.7° - - -
4/29 1:40am 129 1 G 3 55° 54% - - 38° 61.3° 54° - - -
4/29 1:30am 151 1 G 3 55° 53% - - 38° 61.3° 54.8° - - -
4/29 1:20am 148 2 G 4 55° 52% - - 38° 61.3° 55.1° - - -
4/29 1:10am 94 2 G 4 58° 47% - - 38° 61.3° 55.8° - - -
4/29 1:00am 297 4 G 6 61° 41% - - 37° 61.3° 56.3° - - -
4/29 12:50am 319 5 G 7 60° 43% - - 38° 60.7° 56.3° - - -
4/29 12:40am 312 2 G 5 59° 44% - - 37° 60.5° 56.3° - - -
4/29 12:30am 58 0 G 2 59° 45% - - 38° 59.1° 56.3° - - -
4/29 12:20am 51 2 G 5 58° 47% - - 38° 58.8° 56.3° - - -
4/29 12:10am 269 1 G 2 57° 50% - - 38° 57° 56.3° - - -
4/29 12:00am 145 1 G 4 57° 49% - - 38° 74.9° 51.3° - - -
4/28 11:50pm 188 1 G 4 57° 49% - - 38° 74.9° 51.3° - - -
4/28 11:40pm 127 2 G 4 59° 45% - - 37° 74.9° 51.3° - - -
4/28 11:30pm 74 2 G 3 59° 45% - - 37° 74.9° 51.3° - - -
4/28 11:20pm 83 2 G 5 60° 43% - - 37° 74.9° 51.3° - - -
4/28 11:10pm 76 1 G 2 60° 42% - - 37° 74.9° 51.3° - - -
4/28 11:00pm 56 1 G 3 60° 42% - - 37° 74.9° 51.3° - - -
4/28 10:50pm 127 1 G 3 60° 43% - - 37° 74.9° 51.3° - - -
4/28 10:40pm 145 2 G 3 60° 44% - - 37° 74.9° 51.3° - - -
4/28 10:30pm 141 2 G 3 60° 43% - - 38° 74.9° 51.3° - - -
4/28 10:20pm 103 3 G 5 60° 43% - - 37° 74.9° 51.3° - - -
4/28 10:10pm 92 3 G 4 60° 43% - - 38° 74.9° 51.3° - - -
4/28 10:00pm 110 2 G 3 59° 45% - - 38° 74.9° 51.3° - - -
4/28 9:50pm 163 2 G 4 59° 46% - - 39° 74.9° 51.3° - - -
4/28 9:40pm 133 3 G 6 59° 46% - - 39° 74.9° 51.3° - - -
4/28 9:30pm 127 3 G 5 59° 47% - - 39° 74.9° 51.3° - - -
4/28 9:20pm 123 3 G 4 59° 47% - - 39° 74.9° 51.3° - - -
4/28 9:10pm 128 3 G 5 60° 47% - - 40° 74.9° 51.3° - - -
4/28 9:00pm 146 3 G 5 61° 46% - - 40° 74.9° 51.3° - - -
4/28 8:50pm 148 3 G 5 60° 46% - - 39° 74.9° 51.3° - - -
4/28 8:40pm 133 3 G 5 60° 46% - - 40° 74.9° 51.3° - - -
4/28 8:30pm 161 3 G 5 61° 46% - - 40° 74.9° 51.3° - - -
4/28 8:20pm 214 2 G 4 61° 45% - - 40° 74.9° 51.3° - - -
4/28 8:10pm 175 4 G 7 61° 44% - - 40° 74.9° 51.3° - - -
4/28 8:00pm 158 4 G 6 62° 43% - - 39° 74.9° 51.3° - - -
4/28 7:50pm 156 4 G 6 63° 42% - - 39° 74.9° 51.3° - - -
4/28 7:40pm 133 1 G 3 63° 41% - - 39° 74.9° 51.3° - - -
4/28 7:30pm 165 1 G 3 63° 41% - - 39° 74.9° 51.3° - - -
4/28 7:20pm 223 3 G 5 64° 40% - - 39° 74.9° 51.3° - - -
4/28 7:10pm 229 3 G 5 64° 39% - - 39° 74.9° 51.3° - - -
4/28 7:00pm 230 3 G 5 65° 37% - - 38° 74.9° 51.3° - - -
4/28 6:50pm 243 3 G 6 65° 36% - - 38° 74.9° 51.3° - - -
4/28 6:40pm 239 4 G 7 66° 35% - - 37° 74.9° 51.3° - - -
4/28 6:30pm 261 3 G 6 66° 33% - - 36° 74.9° 51.3° - - -
4/28 6:20pm 236 5 G 10 66° 32% - - 35° 74.9° 51.3° - - -
4/28 6:10pm 239 6 G 9 67° 31% - - 35° 74.9° 51.3° - - -
4/28 6:00pm 250 6 G 10 67° 30% - - 35° 74.9° 51.3° - - -